createdAt,value
2018-11-06T00:02:59.739Z,37.20
2018-11-06T00:08:02.076Z,39.67
2018-11-06T00:13:04.899Z,40.30
2018-11-06T00:18:07.205Z,37.93
2018-11-06T00:23:09.538Z,40.55
2018-11-06T00:28:11.865Z,36.90
2018-11-06T00:33:14.245Z,35.38
2018-11-06T00:38:16.545Z,38.48
2018-11-06T00:43:19.009Z,37.98
2018-11-06T00:48:21.449Z,37.40
2018-11-06T00:53:23.757Z,40.43
2018-11-06T00:58:26.081Z,36.60
2018-11-06T01:03:34.069Z,37.53
2018-11-06T01:08:36.374Z,39.83
2018-11-06T01:13:38.916Z,38.37
2018-11-06T01:18:41.359Z,40.35
2018-11-06T01:23:43.666Z,38.92
2018-11-06T01:28:46.034Z,38.40
2018-11-06T01:33:48.482Z,38.75
2018-11-06T01:38:50.866Z,36.48
2018-11-06T01:43:53.270Z,40.78
2018-11-06T01:48:55.625Z,41.90
2018-11-06T01:53:58.107Z,36.53
2018-11-06T01:59:00.452Z,40.07
2018-11-06T02:04:02.914Z,38.83
2018-11-06T02:09:07.408Z,36.45
2018-11-06T02:14:09.804Z,40.35
2018-11-06T02:19:12.233Z,42.30
2018-11-06T02:24:14.580Z,37.37
2018-11-06T02:29:16.943Z,36.47
2018-11-06T02:34:19.416Z,38.33
2018-11-06T02:39:21.771Z,36.77
2018-11-06T02:44:24.347Z,38.03
2018-11-06T02:49:26.694Z,36.95
2018-11-06T02:54:29.265Z,39.60
2018-11-06T02:59:31.627Z,38.63
2018-11-06T03:04:34.030Z,38.43
2018-11-06T03:09:36.438Z,37.58
2018-11-06T03:14:38.796Z,39.70
2018-11-06T03:19:41.104Z,37.67
2018-11-06T03:24:43.396Z,39.43
2018-11-06T03:29:45.714Z,42.60
2018-11-06T03:34:48.005Z,42.62
2018-11-06T03:39:50.306Z,36.77
2018-11-06T03:44:52.648Z,37.70
2018-11-06T03:49:54.974Z,38.90
2018-11-06T03:54:57.276Z,40.80
2018-11-06T03:59:59.852Z,39.60
2018-11-06T04:05:02.239Z,40.33
2018-11-06T04:10:05.517Z,40.27
2018-11-06T04:15:12.276Z,37.50
2018-11-06T04:20:14.679Z,41.75
2018-11-06T04:25:17.009Z,41.80
2018-11-06T04:30:19.574Z,38.60
2018-11-06T04:35:21.886Z,39.53
2018-11-06T04:40:24.261Z,36.88
2018-11-06T04:45:26.602Z,35.65
2018-11-06T04:50:31.325Z,35.63
2018-11-06T04:55:33.630Z,36.50
2018-11-06T05:00:35.962Z,38.13
2018-11-06T05:05:38.278Z,39.67
2018-11-06T05:10:40.570Z,35.13
2018-11-06T05:15:42.918Z,35.30
2018-11-06T05:20:46.535Z,35.57
2018-11-06T05:25:49.080Z,35.93
2018-11-06T05:30:51.366Z,35.83
2018-11-06T05:35:53.634Z,37.60
2018-11-06T05:41:00.749Z,32.87
2018-11-06T05:46:03.115Z,35.60
2018-11-06T05:51:05.529Z,38.77
2018-11-06T05:56:07.806Z,39.23
2018-11-06T06:01:10.275Z,35.35
2018-11-06T06:06:12.554Z,36.07
2018-11-06T06:11:14.882Z,39.03
2018-11-06T06:16:17.203Z,36.00
2018-11-06T06:21:19.549Z,37.40
2018-11-06T06:26:21.831Z,36.37
2018-11-06T06:31:24.111Z,34.43
2018-11-06T06:36:26.387Z,35.77
2018-11-06T06:41:28.682Z,38.87
2018-11-06T06:46:31.037Z,38.73
2018-11-06T06:51:33.362Z,35.60
2018-11-06T06:56:35.662Z,35.50
2018-11-06T07:01:37.969Z,35.57
2018-11-06T07:06:40.252Z,34.92
2018-11-06T07:11:42.545Z,34.98
2018-11-06T07:16:44.878Z,37.67
2018-11-06T07:21:47.151Z,36.73
2018-11-06T07:26:49.423Z,38.17
2018-11-06T07:31:51.994Z,34.23
2018-11-06T07:36:54.263Z,34.37
2018-11-06T07:41:56.569Z,32.90
2018-11-06T07:46:59.114Z,34.70
2018-11-06T07:52:01.410Z,35.45
2018-11-06T07:57:03.798Z,35.17
2018-11-06T08:02:06.153Z,34.17
2018-11-06T08:07:08.434Z,35.37
2018-11-06T08:12:10.723Z,32.50
2018-11-06T08:17:13.069Z,33.88
2018-11-06T08:22:15.338Z,29.82
2018-11-06T08:27:17.635Z,31.75
2018-11-06T08:32:20.067Z,26.07
2018-11-06T08:37:22.258Z,32.10
2018-11-06T08:42:24.628Z,26.85
2018-11-06T08:47:26.935Z,26.23
2018-11-06T08:52:29.243Z,25.70
2018-11-06T08:57:31.532Z,24.63
2018-11-06T09:02:33.940Z,24.18
2018-11-06T09:07:36.412Z,24.95
2018-11-06T09:12:39.222Z,25.65
2018-11-06T09:17:41.938Z,24.07
2018-11-06T09:22:44.201Z,21.73
2018-11-06T09:27:46.485Z,22.77
2018-11-06T09:32:48.779Z,25.80
2018-11-06T09:37:51.049Z,21.93
2018-11-06T09:42:53.342Z,22.10
2018-11-06T09:47:55.674Z,18.30
2018-11-06T09:52:58.080Z,19.57
2018-11-06T09:58:00.409Z,18.90
2018-11-06T10:03:02.732Z,18.50
2018-11-06T10:08:05.026Z,19.27
2018-11-06T10:13:07.314Z,17.30
2018-11-06T10:18:09.638Z,17.62
2018-11-06T10:23:11.918Z,21.70
2018-11-06T10:28:14.233Z,19.23
2018-11-06T10:33:16.540Z,18.32
2018-11-06T10:38:18.847Z,16.90
2018-11-06T10:43:21.134Z,17.90
2018-11-06T10:48:23.481Z,18.00
2018-11-06T10:53:26.106Z,15.08
2018-11-06T10:58:28.411Z,14.78
2018-11-06T11:03:34.725Z,14.75
2018-11-06T11:08:36.998Z,13.78
2018-11-06T11:13:39.277Z,15.15
2018-11-06T11:18:41.570Z,14.25
2018-11-06T11:23:43.933Z,13.03
2018-11-06T11:28:46.222Z,16.52
2018-11-06T11:33:48.574Z,14.38
2018-11-06T11:38:50.942Z,13.80
2018-11-06T11:43:53.455Z,14.15
2018-11-06T11:48:55.796Z,13.53
2018-11-06T11:53:58.084Z,14.65
2018-11-06T11:59:00.357Z,13.88
2018-11-06T12:04:02.691Z,13.10
2018-11-06T12:09:07.475Z,13.55
2018-11-06T12:14:09.750Z,12.80
2018-11-06T12:19:12.089Z,13.65
2018-11-06T12:24:14.540Z,14.25
2018-11-06T12:29:16.707Z,13.08
2018-11-06T12:34:19.002Z,12.43
2018-11-06T12:39:21.292Z,11.57
2018-11-06T12:44:23.635Z,13.48
2018-11-06T12:49:25.950Z,12.50
2018-11-06T12:54:28.245Z,12.68
2018-11-06T12:59:30.505Z,11.12
2018-11-06T13:04:32.793Z,10.50
2018-11-06T13:09:35.069Z,13.03
2018-11-06T13:14:37.466Z,10.13
2018-11-06T13:19:39.757Z,8.85
2018-11-06T13:24:42.042Z,9.40
2018-11-06T13:29:44.323Z,9.05
2018-11-06T13:34:46.602Z,7.45
2018-11-06T13:39:48.899Z,10.85
2018-11-06T13:44:51.592Z,9.23
2018-11-06T13:49:53.544Z,9.35
2018-11-06T13:54:55.823Z,9.33
2018-11-06T13:59:58.136Z,9.35
2018-11-06T14:05:00.599Z,8.50
2018-11-06T14:10:02.926Z,9.73
2018-11-06T14:15:05.438Z,10.05
2018-11-06T14:20:09.845Z,8.70
2018-11-06T14:25:12.981Z,10.03
2018-11-06T14:30:17.095Z,10.20
2018-11-06T14:35:19.791Z,10.88
2018-11-06T14:40:22.185Z,9.60
2018-11-06T14:45:24.469Z,11.18
2018-11-06T14:50:26.781Z,10.48
2018-11-06T14:55:29.061Z,10.72
2018-11-06T15:00:31.353Z,11.80
2018-11-06T15:05:33.669Z,12.23
2018-11-06T15:10:36.011Z,9.75
2018-11-06T15:15:38.300Z,12.80
2018-11-06T15:20:40.794Z,11.50
2018-11-06T15:25:43.190Z,11.75
2018-11-06T15:30:45.553Z,12.10
2018-11-06T15:35:47.862Z,11.57
2018-11-06T15:40:50.161Z,52.35
2018-11-06T15:45:52.768Z,12.88
2018-11-06T15:50:55.276Z,10.80
2018-11-06T15:55:57.911Z,11.70
2018-11-06T16:01:01.287Z,12.05
2018-11-06T16:06:03.792Z,13.03
2018-11-06T16:11:07.395Z,17.45
2018-11-06T16:16:09.692Z,10.35
2018-11-06T16:21:13.459Z,15.38
2018-11-06T16:26:15.816Z,12.28
2018-11-06T16:31:18.156Z,15.10
2018-11-06T16:36:20.614Z,13.70
2018-11-06T16:41:23.028Z,15.72
2018-11-06T16:46:25.387Z,15.78
2018-11-06T16:51:27.794Z,14.33
2018-11-06T16:56:30.191Z,14.90
2018-11-06T17:01:32.590Z,16.27
2018-11-06T17:06:39.519Z,18.75
2018-11-06T17:11:41.947Z,16.97
2018-11-06T17:16:44.548Z,19.50
2018-11-06T17:21:46.949Z,19.85
2018-11-06T17:26:49.310Z,21.17
2018-11-06T17:31:51.594Z,18.55
2018-11-06T17:36:53.879Z,20.68
2018-11-06T17:41:56.298Z,20.97
2018-11-06T17:46:58.734Z,20.27
2018-11-06T17:52:01.163Z,21.60
2018-11-06T17:57:03.621Z,21.25
2018-11-06T18:02:06.231Z,21.82
2018-11-06T18:07:08.763Z,27.02
2018-11-06T18:12:10.814Z,26.77
2018-11-06T18:17:13.174Z,24.75
2018-11-06T18:22:15.595Z,28.38
2018-11-06T18:27:17.891Z,23.90
2018-11-06T18:32:20.341Z,28.30
2018-11-06T18:37:22.693Z,27.15
2018-11-06T18:42:25.066Z,33.80
2018-11-06T18:47:27.560Z,29.50
2018-11-06T18:52:30.026Z,29.45
2018-11-06T18:57:32.439Z,30.40
2018-11-06T19:02:34.860Z,32.93
2018-11-06T19:07:37.463Z,30.08
2018-11-06T19:12:39.895Z,31.17
2018-11-06T19:17:43.004Z,33.75
2018-11-06T19:22:45.626Z,36.48
2018-11-06T19:27:47.890Z,36.70
2018-11-06T19:32:50.228Z,35.80
2018-11-06T19:37:52.547Z,35.28
2018-11-06T19:42:54.839Z,36.98
2018-11-06T19:47:57.178Z,37.25
2018-11-06T19:52:59.528Z,38.92
2018-11-06T19:58:01.899Z,38.55
2018-11-06T20:03:04.740Z,38.45
2018-11-06T20:08:07.085Z,41.90
2018-11-06T20:13:09.826Z,42.95
2018-11-06T20:18:12.298Z,43.25
2018-11-06T20:23:14.643Z,44.58
2018-11-06T20:28:16.919Z,44.70
2018-11-06T20:33:19.316Z,45.25
2018-11-06T20:38:21.511Z,45.95
2018-11-06T20:43:23.787Z,46.60
2018-11-06T20:48:26.106Z,45.70
2018-11-06T20:53:28.456Z,46.83
2018-11-06T20:58:30.757Z,48.70
2018-11-06T21:03:33.255Z,49.15
2018-11-06T21:08:35.592Z,49.25
2018-11-06T21:13:38.370Z,50.05
2018-11-06T21:18:40.812Z,49.18
2018-11-06T21:23:43.532Z,52.50
2018-11-06T21:28:45.805Z,52.80
2018-11-06T21:33:48.144Z,48.75
2018-11-06T21:38:50.430Z,55.80
2018-11-06T21:43:52.761Z,52.38
2018-11-06T21:48:55.034Z,51.15
2018-11-06T21:53:57.476Z,50.12
2018-11-06T21:58:59.737Z,50.28
2018-11-06T22:04:02.055Z,48.10
2018-11-06T22:09:06.305Z,50.80
2018-11-06T22:14:08.642Z,51.53
2018-11-06T22:19:10.960Z,51.83
2018-11-06T22:24:13.335Z,53.38
2018-11-06T22:29:15.607Z,47.08
2018-11-06T22:34:17.886Z,53.33
2018-11-06T22:39:20.190Z,58.08
2018-11-06T22:44:22.457Z,58.13
2018-11-06T22:49:24.722Z,50.90
2018-11-06T22:54:27.081Z,55.35
2018-11-06T22:59:29.426Z,56.58
2018-11-06T23:04:31.722Z,56.42
2018-11-06T23:09:33.988Z,57.15
2018-11-06T23:14:36.276Z,47.27
2018-11-06T23:19:38.573Z,54.40
2018-11-06T23:24:40.869Z,51.42
2018-11-06T23:29:43.154Z,55.60
2018-11-06T23:34:45.416Z,55.45
2018-11-06T23:39:47.709Z,49.42
2018-11-06T23:44:49.981Z,51.20
2018-11-06T23:49:52.266Z,51.95
2018-11-06T23:54:54.801Z,48.33
2018-11-06T23:59:57.398Z,58.30
